Time;durP1;ratioP1;P1;durP2;ratioP2;P2;SDS_P1;SDS_P2;PMS_P1;PMS_P2;Temp;Humidity;BMP_temperature;BMP_pressure;BME280_temperature;BME280_humidity;BME280_pressure;Samples;Min_cycle;Max_cycle;Signal;HPM_P1;HPM_P2
2022/10/09 00:01:11;;;;;;;9.73;6.83;;;;;;;14.33;67.98;99291.06;1739679;81;21523;-66
2022/10/09 00:03:39;;;;;;;12.50;7.00;;;;;;;14.37;67.88;99288.28;1730504;82;21152;-65
2022/10/09 00:06:07;;;;;;;8.35;6.78;;;;;;;14.40;67.80;99295.92;1730814;81;21417;-65
2022/10/09 00:08:42;;;;;;;8.98;6.70;;;;;;;14.42;67.74;99292.53;1732021;81;20990;-65
2022/10/09 00:11:13;;;;;;;9.78;6.45;;;;;;;14.45;67.69;99292.13;1715239;81;21041;-65
2022/10/09 00:13:41;;;;;;;13.25;7.20;;;;;;;14.48;67.62;99293.59;1747675;81;21539;-66
2022/10/09 00:16:09;;;;;;;8.10;6.50;;;;;;;14.51;67.53;99290.52;1711976;83;21319;-66
2022/10/09 00:18:36;;;;;;;10.00;7.12;;;;;;;14.53;67.50;99289.28;1712944;83;21114;-66
2022/10/09 00:21:04;;;;;;;9.33;6.08;;;;;;;14.59;67.34;99292.52;1718994;83;20990;-66
2022/10/09 00:23:31;;;;;;;7.50;6.25;;;;;;;14.65;67.15;99284.20;1698043;83;21082;-66
2022/10/09 00:25:59;;;;;;;8.53;6.55;;;;;;;14.68;66.93;99277.91;1693983;83;20999;-66
2022/10/09 00:28:28;;;;;;;9.40;6.60;;;;;;;14.70;66.85;99279.06;1707043;83;21168;-66
2022/10/09 00:30:54;;;;;;;8.03;6.25;;;;;;;14.72;66.71;99283.19;1692105;83;20950;-67
2022/10/09 00:33:21;;;;;;;8.28;6.50;;;;;;;14.76;66.57;99278.23;1696666;83;20915;-66
2022/10/09 00:35:48;;;;;;;6.70;6.05;;;;;;;14.76;66.49;99274.22;1704153;83;20899;-66
2022/10/09 00:38:15;;;;;;;8.53;7.65;;;;;;;14.78;66.42;99270.31;1705500;83;20883;-66
2022/10/09 00:40:41;;;;;;;7.95;6.42;;;;;;;14.79;66.36;99271.98;1693221;83;21147;-66
2022/10/09 00:43:17;;;;;;;8.50;6.60;;;;;;;14.82;66.26;99264.88;1670766;83;20911;-67
2022/10/09 00:45:47;;;;;;;7.90;6.53;;;;;;;14.82;66.23;99260.86;1694124;83;20923;-67
2022/10/09 00:48:14;;;;;;;9.83;6.70;;;;;;;14.87;66.13;99264.77;1695370;83;21009;-66
2022/10/09 00:50:44;;;;;;;8.18;6.87;;;;;;;14.86;66.09;99260.47;1704842;83;20966;-66
2022/10/09 00:53:14;;;;;;;9.25;6.85;;;;;;;14.84;66.15;99265.50;1694855;83;21155;-67
2022/10/09 00:55:41;;;;;;;7.60;6.47;;;;;;;14.79;66.29;99261.27;1688140;83;21030;-68
2022/10/09 00:58:07;;;;;;;7.87;6.37;;;;;;;14.75;66.49;99269.91;1711114;83;20875;-66
2022/10/09 01:00:34;;;;;;;8.30;6.50;;;;;;;14.75;66.57;99269.91;1688157;84;21504;-65
2022/10/09 01:03:00;;;;;;;9.75;7.33;;;;;;;14.74;66.60;99269.59;1690264;83;21001;-66
2022/10/09 01:05:35;;;;;;;13.50;6.87;;;;;;;14.72;66.65;99262.27;1705079;83;21166;-66
2022/10/09 01:08:19;;;;;;;8.63;6.47;;;;;;;14.70;66.73;99265.67;1705702;83;21508;-66
2022/10/09 01:11:05;;;;;;;10.25;6.65;;;;;;;14.68;66.85;99273.89;1696830;83;21497;-67
2022/10/09 01:13:42;;;;;;;7.12;6.33;;;;;;;14.65;67.03;99268.13;1700988;83;21535;-66
2022/10/09 01:16:23;;;;;;;8.50;6.58;;;;;;;14.59;67.23;99275.11;1704135;83;20911;-67
2022/10/09 01:19:41;;;;;;;9.43;7.33;;;;;;;14.58;67.46;99276.63;1698230;83;22062;-67
2022/10/09 01:23:02;;;;;;;6.67;5.72;;;;;;;14.53;67.65;99271.89;1697070;81;20899;-66
2022/10/09 01:26:11;;;;;;;7.20;6.45;;;;;;;14.48;67.92;99275.68;1720228;83;20902;-66
2022/10/09 01:28:39;;;;;;;7.55;6.22;;;;;;;14.44;68.25;99273.11;1733002;81;21017;-67
2022/10/09 01:31:06;;;;;;;10.32;7.45;;;;;;;14.39;68.49;99274.19;1737120;81;21527;-67
2022/10/09 01:33:32;;;;;;;10.78;7.83;;;;;;;14.36;68.71;99271.11;1737556;81;22152;-66
2022/10/09 01:35:59;;;;;;;10.90;7.40;;;;;;;14.35;68.88;99273.45;1731978;81;20914;-67
2022/10/09 01:38:26;;;;;;;10.15;7.55;;;;;;;14.33;69.03;99275.01;1730330;81;21001;-67
2022/10/09 01:40:53;;;;;;;8.10;7.28;;;;;;;14.32;69.13;99281.88;1733655;81;20982;-67
2022/10/09 01:43:19;;;;;;;9.85;7.37;;;;;;;14.28;69.35;99284.11;1730219;81;20938;-66
2022/10/09 01:45:47;;;;;;;8.25;7.35;;;;;;;14.28;69.51;99284.11;1741880;81;21136;-67
2022/10/09 01:48:23;;;;;;;10.08;8.05;;;;;;;14.28;69.58;99284.11;1738990;81;21090;-66
2022/10/09 01:50:55;;;;;;;11.50;8.58;;;;;;;14.26;69.72;99285.34;1729923;81;20898;-65
2022/10/09 01:53:21;;;;;;;10.60;8.13;;;;;;;14.23;69.86;99283.87;1733590;81;21531;-65
2022/10/09 01:56:04;;;;;;;12.23;8.28;;;;;;;14.18;70.20;99288.47;1738448;81;20895;-65
2022/10/09 01:58:38;;;;;;;9.85;8.85;;;;;;;14.18;70.38;99289.00;1732560;81;22275;-66
2022/10/09 02:01:15;;;;;;;9.83;8.70;;;;;;;14.16;70.60;99289.69;1728140;81;21001;-66
2022/10/09 02:03:45;;;;;;;14.40;9.15;;;;;;;14.12;70.89;99293.29;1730287;81;21006;-66
2022/10/09 02:06:13;;;;;;;12.25;9.48;;;;;;;14.11;71.06;99293.47;1737416;81;20958;-67
2022/10/09 02:08:41;;;;;;;11.43;9.68;;;;;;;14.08;71.22;99290.67;1734244;81;21024;-67
2022/10/09 02:11:10;;;;;;;13.35;9.73;;;;;;;14.06;71.42;99288.72;1746880;81;21267;-67
2022/10/09 02:13:38;;;;;;;10.85;9.73;;;;;;;14.06;71.63;99297.25;1742925;81;20938;-67
2022/10/09 02:16:39;;;;;;;12.10;9.63;;;;;;;14.04;71.79;99295.28;1738850;81;20942;-67
2022/10/09 02:19:27;;;;;;;10.40;9.10;;;;;;;14.01;71.93;99297.84;1726195;81;21001;-66
2022/10/09 02:22:14;;;;;;;11.15;8.75;;;;;;;13.99;72.17;99301.73;1737027;81;20993;-66
2022/10/09 02:24:41;;;;;;;17.95;10.28;;;;;;;13.93;72.40;99295.83;1744979;81;21141;-67
2022/10/09 02:27:08;;;;;;;10.40;9.40;;;;;;;13.88;72.71;99302.27;1735545;81;20894;-67
2022/10/09 02:29:39;;;;;;;11.08;9.88;;;;;;;13.83;72.95;99302.03;1738137;81;21424;-67
2022/10/09 02:32:06;;;;;;;11.57;10.13;;;;;;;13.78;73.26;99306.64;1748413;81;20921;-67
2022/10/09 02:34:33;;;;;;;14.07;10.32;;;;;;;13.73;73.53;99306.91;1746891;81;21021;-67
2022/10/09 02:36:59;;;;;;;10.95;9.63;;;;;;;13.70;73.82;99315.30;1737398;81;21762;-67
2022/10/09 02:39:26;;;;;;;12.58;10.60;;;;;;;13.65;74.23;99313.22;1740002;81;20937;-66
2022/10/09 02:41:53;;;;;;;15.53;11.48;;;;;;;13.63;74.54;99315.77;1728258;81;20942;-66
2022/10/09 02:44:19;;;;;;;11.15;9.98;;;;;;;13.58;74.83;99313.16;1730388;81;21440;-67
2022/10/09 02:46:46;;;;;;;12.80;10.40;;;;;;;13.54;75.14;99311.07;1697620;84;20935;-67
2022/10/09 02:49:13;;;;;;;16.25;10.15;;;;;;;13.53;75.45;99318.79;1728150;82;21249;-67
2022/10/09 02:51:39;;;;;;;11.95;10.55;;;;;;;13.52;75.68;99313.95;1728252;81;20962;-66
2022/10/09 02:54:06;;;;;;;13.72;11.20;;;;;;;13.50;75.81;99318.63;1728206;82;21471;-67
2022/10/09 02:56:33;;;;;;;15.13;11.93;;;;;;;13.48;76.06;99328.70;1726586;81;20962;-66
2022/10/09 02:59:00;;;;;;;12.45;11.15;;;;;;;13.46;76.36;99325.90;1733581;81;22335;-66
2022/10/09 03:01:27;;;;;;;14.18;12.15;;;;;;;13.46;76.58;99341.94;1727157;81;21697;-66
2022/10/09 03:03:53;;;;;;;13.83;11.25;;;;;;;13.45;76.78;99338.42;1746328;81;20989;-66
2022/10/09 03:06:23;;;;;;;14.00;11.33;;;;;;;13.44;77.14;99347.48;1726654;81;20886;-66
2022/10/09 03:08:49;;;;;;;16.87;11.35;;;;;;;13.42;77.35;99342.84;1727297;81;20907;-66
2022/10/09 03:11:17;;;;;;;16.30;11.90;;;;;;;13.41;77.56;99346.52;1733133;81;20925;-66
2022/10/09 03:13:43;;;;;;;13.72;12.13;;;;;;;13.40;77.81;99347.53;1739496;81;21098;-66
2022/10/09 03:16:15;;;;;;;13.95;11.78;;;;;;;13.41;78.06;99348.36;1727914;81;20891;-66
2022/10/09 03:18:44;;;;;;;12.65;11.35;;;;;;;13.45;78.29;99346.98;1737161;81;20918;-66
2022/10/09 03:21:17;;;;;;;13.18;11.25;;;;;;;13.53;78.45;99350.33;1728040;81;20942;-66
2022/10/09 03:23:44;;;;;;;12.75;11.48;;;;;;;13.60;78.59;99359.75;1730562;81;20945;-66
2022/10/09 03:26:15;;;;;;;13.58;12.20;;;;;;;13.69;78.71;99360.45;1744643;81;20966;-66
2022/10/09 03:28:46;;;;;;;13.40;11.78;;;;;;;13.76;78.78;99354.64;1720467;82;21528;-66
2022/10/09 03:31:15;;;;;;;13.32;11.93;;;;;;;13.83;78.86;99352.84;1740479;80;21007;-66
2022/10/09 03:33:42;;;;;;;14.05;12.65;;;;;;;13.90;78.86;99357.21;1745537;81;20982;-66
2022/10/09 03:36:09;;;;;;;12.70;11.40;;;;;;;13.96;78.93;99349.77;1728911;82;20894;-66
2022/10/09 03:38:36;;;;;;;12.68;11.45;;;;;;;14.03;78.88;99345.27;1736839;81;21853;-66
2022/10/09 03:41:03;;;;;;;14.25;11.83;;;;;;;14.08;78.85;99343.34;1743193;81;20954;-66
2022/10/09 03:43:31;;;;;;;14.07;12.58;;;;;;;14.13;78.86;99338.26;1745899;81;21554;-66
2022/10/09 03:45:57;;;;;;;13.32;11.93;;;;;;;14.20;78.86;99341.28;1739908;81;21011;-66
2022/10/09 03:48:24;;;;;;;16.35;12.45;;;;;;;14.26;78.79;99342.86;1746026;81;20985;-66
2022/10/09 03:50:51;;;;;;;14.00;11.83;;;;;;;14.28;78.79;99344.31;1736369;81;21261;-66
2022/10/09 03:53:17;;;;;;;14.60;11.80;;;;;;;14.34;78.83;99349.42;1738992;80;20918;-66
2022/10/09 03:55:45;;;;;;;15.78;12.03;;;;;;;14.36;78.80;99342.85;1712635;82;20921;-66
2022/10/09 03:58:12;;;;;;;14.75;11.28;;;;;;;14.39;78.79;99346.98;1742099;81;20926;-66
2022/10/09 04:00:38;;;;;;;13.13;11.80;;;;;;;14.41;78.72;99356.47;1725883;82;20902;-66
2022/10/09 04:03:05;;;;;;;13.55;12.15;;;;;;;14.41;78.64;99349.77;1744604;81;21115;-66
2022/10/09 04:05:34;;;;;;;14.10;12.73;;;;;;;14.40;78.67;99345.43;1727061;82;21033;-66
2022/10/09 04:08:02;;;;;;;13.15;11.95;;;;;;;14.39;78.75;99349.12;1744756;81;20989;-65
2022/10/09 04:10:29;;;;;;;12.58;11.30;;;;;;;14.42;78.76;99351.41;1740736;81;21012;-65
2022/10/09 04:12:56;;;;;;;13.55;12.13;;;;;;;14.44;78.83;99352.06;1744857;81;21479;-66
2022/10/09 04:15:23;;;;;;;14.30;12.93;;;;;;;14.50;78.81;99351.24;1740230;81;21158;-66
2022/10/09 04:17:51;;;;;;;13.05;11.57;;;;;;;14.56;78.76;99354.98;1736731;81;20984;-66
2022/10/09 04:20:19;;;;;;;12.88;11.53;;;;;;;14.59;78.70;99359.95;1740887;81;20931;-66
2022/10/09 04:22:47;;;;;;;14.05;12.60;;;;;;;14.62;78.64;99359.05;1738434;81;20941;-66
2022/10/09 04:25:13;;;;;;;13.35;11.70;;;;;;;14.65;78.61;99362.64;1739659;82;21069;-65
2022/10/09 04:27:42;;;;;;;14.65;11.88;;;;;;;14.70;78.57;99367.42;1718435;82;21110;-65
2022/10/09 04:30:10;;;;;;;12.13;10.93;;;;;;;14.73;78.54;99366.48;1724354;81;20930;-66
2022/10/09 04:32:37;;;;;;;13.78;12.37;;;;;;;14.76;78.45;99362.59;1725023;81;21010;-66
2022/10/09 04:35:04;;;;;;;13.53;12.33;;;;;;;14.79;78.44;99368.37;1727676;82;20986;-66
2022/10/09 04:37:31;;;;;;;14.43;12.30;;;;;;;14.82;78.40;99369.32;1728552;82;20935;-66
2022/10/09 04:39:57;;;;;;;13.48;12.37;;;;;;;14.86;78.33;99364.38;1729736;82;21261;-66
2022/10/09 04:42:24;;;;;;;13.72;12.35;;;;;;;14.88;78.26;99364.19;1733482;82;20935;-66
2022/10/09 04:44:50;;;;;;;16.40;12.68;;;;;;;14.92;78.18;99369.44;1736637;82;21603;-66
2022/10/09 04:47:17;;;;;;;13.50;12.18;;;;;;;14.93;78.18;99371.11;1729471;82;21117;-66
2022/10/09 04:49:44;;;;;;;13.15;11.50;;;;;;;14.97;78.12;99372.34;1725181;82;21007;-66
2022/10/09 04:52:11;;;;;;;13.65;11.43;;;;;;;14.99;78.05;99376.47;1714539;82;21537;-66
2022/10/09 04:54:38;;;;;;;13.13;11.78;;;;;;;14.99;78.08;99375.67;1725701;82;20899;-66
2022/10/09 04:57:04;;;;;;;13.45;12.07;;;;;;;15.01;78.07;99381.65;1722552;82;21495;-66
2022/10/09 04:59:31;;;;;;;14.50;11.80;;;;;;;15.01;78.04;99373.10;1742631;81;21056;-66
2022/10/09 05:01:57;;;;;;;13.83;12.55;;;;;;;15.04;78.01;99383.94;1736724;82;20950;-66
2022/10/09 05:04:24;;;;;;;12.93;11.83;;;;;;;15.06;77.96;99387.23;1722491;82;21295;-66
2022/10/09 05:06:50;;;;;;;13.98;12.58;;;;;;;15.07;77.97;99389.69;1724999;82;20989;-66
2022/10/09 05:09:17;;;;;;;13.98;12.25;;;;;;;15.09;77.91;99382.81;1745591;81;20891;-66
2022/10/09 05:11:44;;;;;;;18.35;13.50;;;;;;;15.07;77.97;99385.67;1714907;82;21043;-67
2022/10/09 05:14:12;;;;;;;14.23;12.73;;;;;;;15.05;78.05;99383.72;1728981;82;20973;-66
2022/10/09 05:16:40;;;;;;;13.10;11.80;;;;;;;15.08;78.10;99396.72;1718013;83;21141;-66
2022/10/09 05:19:08;;;;;;;12.18;10.82;;;;;;;15.09;78.16;99398.89;1708839;82;21416;-66
2022/10/09 05:21:35;;;;;;;13.83;12.25;;;;;;;15.13;78.23;99403.63;1749236;81;20978;-66
2022/10/09 05:24:03;;;;;;;13.50;12.10;;;;;;;15.19;78.12;99408.20;1743716;80;21093;-66
2022/10/09 05:26:30;;;;;;;13.18;11.93;;;;;;;15.23;78.09;99409.94;1740972;80;20891;-66
2022/10/09 05:28:56;;;;;;;13.68;12.28;;;;;;;15.26;78.06;99416.24;1740403;80;21442;-66
2022/10/09 05:31:25;;;;;;;13.53;12.37;;;;;;;15.30;77.99;99413.48;1743949;80;20930;-66
2022/10/09 05:33:52;;;;;;;15.00;13.58;;;;;;;15.29;78.01;99427.39;1745788;80;21479;-66
2022/10/09 05:36:20;;;;;;;16.45;13.75;;;;;;;15.30;77.98;99425.55;1707910;83;20879;-66
2022/10/09 05:38:48;;;;;;;15.23;13.83;;;;;;;15.30;77.90;99431.71;1722204;83;21480;-66
2022/10/09 05:41:16;;;;;;;13.65;12.43;;;;;;;15.31;77.91;99431.20;1721864;81;21153;-66
2022/10/09 05:43:45;;;;;;;15.00;13.35;;;;;;;15.34;77.85;99432.14;1716761;81;20945;-66
2022/10/09 05:46:17;;;;;;;15.00;13.60;;;;;;;15.34;77.81;99430.80;1721868;81;21508;-66
2022/10/09 05:48:48;;;;;;;15.18;12.18;;;;;;;15.35;77.82;99429.79;1721951;81;21585;-67
2022/10/09 05:51:19;;;;;;;15.63;11.93;;;;;;;15.37;77.74;99435.77;1721731;81;21024;-66
2022/10/09 05:53:46;;;;;;;12.95;11.83;;;;;;;15.37;77.75;99437.94;1721462;83;21130;-67
2022/10/09 05:56:20;;;;;;;12.70;11.38;;;;;;;15.38;77.75;99448.16;1721833;81;21571;-67
2022/10/09 05:58:53;;;;;;;12.25;11.10;;;;;;;15.39;77.69;99455.14;1721996;81;20934;-66
2022/10/09 06:01:20;;;;;;;13.65;11.43;;;;;;;15.39;77.66;99455.14;1721842;81;20911;-66
2022/10/09 06:03:50;;;;;;;13.20;11.90;;;;;;;15.41;77.55;99459.78;1721839;82;20890;-66
2022/10/09 06:06:17;;;;;;;15.20;11.68;;;;;;;15.41;77.48;99460.62;1721787;83;21806;-67
2022/10/09 06:08:43;;;;;;;15.10;11.48;;;;;;;15.42;77.45;99468.16;1721265;81;20938;-65
2022/10/09 06:11:30;;;;;;;13.03;11.68;;;;;;;15.40;77.54;99471.05;1722057;83;20930;-66
2022/10/09 06:13:59;;;;;;;12.85;11.53;;;;;;;15.42;77.62;99481.05;1718543;83;20994;-66
2022/10/09 06:16:28;;;;;;;12.15;11.03;;;;;;;15.48;77.57;99485.32;1721750;81;21124;-67
2022/10/09 06:18:56;;;;;;;12.47;10.53;;;;;;;15.49;77.60;99486.45;1721829;81;21472;-67
2022/10/09 06:21:25;;;;;;;12.03;10.25;;;;;;;15.54;77.43;99493.37;1721821;81;20935;-66
2022/10/09 06:23:56;;;;;;;11.80;10.65;;;;;;;15.57;77.35;99492.14;1718951;81;21094;-67
2022/10/09 06:26:27;;;;;;;14.55;10.50;;;;;;;15.62;77.26;99495.04;1698162;83;21487;-67
2022/10/09 06:28:54;;;;;;;12.00;9.63;;;;;;;15.68;77.03;99497.75;1698192;83;20980;-67
2022/10/09 06:31:23;;;;;;;11.70;10.68;;;;;;;15.73;76.87;99499.31;1697981;82;21153;-66
2022/10/09 06:33:50;;;;;;;11.35;10.20;;;;;;;15.77;76.63;99499.20;1697526;83;20937;-66
2022/10/09 06:36:20;;;;;;;12.58;11.28;;;;;;;15.74;76.70;99505.00;1697665;82;21067;-67
2022/10/09 06:38:47;;;;;;;12.28;10.90;;;;;;;15.77;76.48;99513.16;1698953;83;21504;-67
2022/10/09 06:41:21;;;;;;;14.73;11.63;;;;;;;15.83;76.35;99528.42;1694974;83;21000;-66
2022/10/09 06:43:55;;;;;;;11.48;9.88;;;;;;;15.87;76.22;99525.15;1698189;83;21774;-67
2022/10/09 06:46:25;;;;;;;11.33;10.28;;;;;;;15.93;76.04;99527.00;1696986;83;21008;-66
2022/10/09 06:48:51;;;;;;;12.37;10.58;;;;;;;16.00;75.79;99531.89;1696577;83;21057;-67
2022/10/09 06:51:19;;;;;;;11.38;10.28;;;;;;;16.08;75.71;99537.57;1684321;83;20918;-67
2022/10/09 06:53:49;;;;;;;11.65;10.55;;;;;;;16.15;75.55;99533.03;1668536;84;20945;-67
2022/10/09 06:56:17;;;;;;;10.63;9.48;;;;;;;16.20;75.34;99534.58;1692678;83;21135;-66
2022/10/09 06:58:44;;;;;;;14.87;10.98;;;;;;;16.23;75.19;99540.89;1687793;85;21511;-66
2022/10/09 07:01:14;;;;;;;10.90;9.78;;;;;;;16.22;75.26;99539.73;1693143;83;21097;-67
2022/10/09 07:03:42;;;;;;;10.70;9.60;;;;;;;16.27;74.96;99538.63;1686640;83;20962;-67
2022/10/09 07:06:14;;;;;;;11.57;10.48;;;;;;;16.28;74.74;99545.63;1691233;84;21439;-67
2022/10/09 07:08:43;;;;;;;11.85;10.75;;;;;;;16.29;74.54;99551.33;1687879;83;21294;-67
2022/10/09 07:11:15;;;;;;;11.65;9.90;;;;;;;16.24;74.33;99546.55;1689418;83;21467;-66
2022/10/09 07:13:43;;;;;;;12.20;10.90;;;;;;;16.21;74.17;99556.89;1687760;84;21038;-67
2022/10/09 07:16:10;;;;;;;12.15;10.85;;;;;;;16.14;74.16;99562.77;1709614;83;21077;-68
2022/10/09 07:18:38;;;;;;;12.60;11.22;;;;;;;16.12;74.02;99566.15;1684226;83;20977;-68
2022/10/09 07:21:07;;;;;;;14.43;12.98;;;;;;;16.06;74.02;99559.23;1696831;84;20890;-67
2022/10/09 07:23:34;;;;;;;14.95;13.68;;;;;;;16.01;74.18;99556.33;1687686;83;20917;-67
2022/10/09 07:26:19;;;;;;;13.48;11.80;;;;;;;16.00;74.29;99565.42;1696395;83;21566;-67
2022/10/09 07:28:46;;;;;;;14.60;10.18;;;;;;;16.02;74.35;99562.02;1691912;83;20954;-68
2022/10/09 07:31:12;;;;;;;12.50;10.90;;;;;;;16.01;74.30;99568.91;1706004;82;21503;-67
2022/10/09 07:33:40;;;;;;;11.48;10.30;;;;;;;15.99;74.15;99575.84;1701164;83;21157;-67
2022/10/09 07:36:07;;;;;;;11.93;10.05;;;;;;;15.95;74.11;99579.13;1696594;83;21003;-68
2022/10/09 07:38:35;;;;;;;12.73;10.43;;;;;;;15.93;74.10;99588.70;1696015;84;21527;-66
2022/10/09 07:41:07;;;;;;;16.25;10.82;;;;;;;15.94;74.10;99581.49;1697037;83;21035;-66
2022/10/09 07:43:38;;;;;;;14.30;10.63;;;;;;;15.94;74.02;99590.37;1696742;84;20993;-66
2022/10/09 07:46:06;;;;;;;13.08;10.55;;;;;;;15.93;74.02;99590.05;1709625;83;21182;-67
2022/10/09 07:48:33;;;;;;;11.78;10.23;;;;;;;15.93;73.88;99595.92;1697824;84;21154;-66
2022/10/09 07:51:12;;;;;;;10.95;9.95;;;;;;;15.95;73.87;99602.77;1699162;83;21396;-67
2022/10/09 07:53:39;;;;;;;11.20;10.13;;;;;;;15.97;73.63;99598.02;1698102;84;21024;-66
2022/10/09 07:56:05;;;;;;;11.18;9.88;;;;;;;15.98;73.46;99606.91;1715154;83;21001;-66
2022/10/09 07:58:33;;;;;;;11.43;9.95;;;;;;;15.99;73.41;99608.54;1707301;83;21527;-67
2022/10/09 08:01:05;;;;;;;12.35;9.90;;;;;;;15.99;73.29;99609.88;1700546;83;21068;-66
2022/10/09 08:03:34;;;;;;;13.38;10.80;;;;;;;15.99;73.18;99620.11;1696751;84;21494;-67
2022/10/09 08:06:02;;;;;;;12.75;9.65;;;;;;;15.99;72.94;99617.93;1697773;84;20999;-66
2022/10/09 08:08:28;;;;;;;11.00;9.23;;;;;;;15.99;72.86;99613.40;1699057;83;20942;-67
2022/10/09 08:10:56;;;;;;;14.30;12.63;;;;;;;16.00;72.77;99623.62;1717325;83;20960;-67
2022/10/09 08:13:24;;;;;;;11.35;10.23;;;;;;;16.01;72.70;99627.43;1695952;84;20889;-67
2022/10/09 08:15:52;;;;;;;12.70;9.78;;;;;;;16.02;72.51;99626.41;1697787;84;21562;-66
2022/10/09 08:18:19;;;;;;;10.95;9.35;;;;;;;16.03;72.41;99626.71;1699569;83;21224;-66
2022/10/09 08:21:02;;;;;;;11.25;10.05;;;;;;;16.06;72.30;99633.02;1705857;83;21006;-67
2022/10/09 08:23:29;;;;;;;10.28;9.38;;;;;;;16.10;72.27;99629.43;1673326;84;21579;-66
2022/10/09 08:25:55;;;;;;;10.63;8.93;;;;;;;16.16;72.20;99630.48;1704366;81;21494;-66
2022/10/09 08:28:22;;;;;;;11.97;9.35;;;;;;;16.20;72.13;99633.89;1722123;81;21052;-67
2022/10/09 08:30:48;;;;;;;10.85;8.60;;;;;;;16.24;71.98;99642.37;1721448;81;20987;-67
2022/10/09 08:33:20;;;;;;;17.48;14.25;;;;;;;16.24;71.68;99638.35;1721598;83;21005;-67
2022/10/09 08:35:45;;;;;;;12.05;10.85;;;;;;;16.26;71.48;99639.80;1721707;81;21149;-66
2022/10/09 08:38:12;;;;;;;9.88;8.58;;;;;;;16.30;71.32;99635.67;1721879;81;21013;-66
2022/10/09 08:40:56;;;;;;;11.40;8.58;;;;;;;16.34;70.97;99644.98;1722037;81;20962;-67
2022/10/09 08:43:31;;;;;;;10.70;8.55;;;;;;;16.41;70.71;99649.02;1700874;81;21038;-66
2022/10/09 08:46:05;;;;;;;8.58;7.78;;;;;;;16.49;70.56;99648.83;1721662;81;21036;-66
2022/10/09 08:48:35;;;;;;;8.80;7.80;;;;;;;16.53;70.41;99650.09;1721589;81;21535;-66
2022/10/09 08:51:02;;;;;;;11.75;7.25;;;;;;;16.60;70.19;99649.61;1721418;81;21013;-67
2022/10/09 08:53:48;;;;;;;7.55;6.80;;;;;;;16.70;69.75;99654.56;1701137;83;21467;-66
2022/10/09 08:56:15;;;;;;;7.45;6.55;;;;;;;16.78;69.20;99659.73;1688918;83;21155;-66
2022/10/09 08:58:42;;;;;;;11.55;6.65;;;;;;;16.86;68.75;99655.00;1719120;81;21069;-67
2022/10/09 09:01:51;;;;;;;10.78;5.97;;;;;;;16.92;68.23;99662.22;1721707;81;21158;-69
2022/10/09 09:04:33;;;;;;;8.88;6.53;;;;;;;16.95;67.52;99651.56;1721331;81;20957;-68
2022/10/09 09:07:13;;;;;;;11.25;6.12;;;;;;;16.99;67.35;99655.52;1662313;84;21021;-67
2022/10/09 09:09:59;;;;;;;6.17;5.58;;;;;;;17.08;67.10;99650.22;1748200;80;20962;-66
2022/10/09 09:12:43;;;;;;;7.80;5.42;;;;;;;17.19;66.61;99656.32;1748299;80;20954;-66
2022/10/09 09:15:31;;;;;;;8.93;5.67;;;;;;;17.24;66.12;99654.66;1748084;80;22618;-67
2022/10/09 09:18:26;;;;;;;9.20;5.85;;;;;;;17.26;65.56;99653.93;1747597;81;20903;-67
2022/10/09 09:20:55;;;;;;;6.28;5.33;;;;;;;17.29;65.16;99664.27;1721739;81;21009;-67
2022/10/09 09:23:27;;;;;;;5.37;4.87;;;;;;;17.43;64.93;99657.02;1721670;81;21001;-67
2022/10/09 09:25:54;;;;;;;5.47;4.97;;;;;;;17.57;63.86;99661.34;1729026;81;21061;-66
2022/10/09 09:28:28;;;;;;;5.40;4.05;;;;;;;17.74;63.17;99658.52;1755210;80;21095;-67
2022/10/09 09:31:17;;;;;;;5.12;3.80;;;;;;;17.94;62.18;99658.98;1762130;81;20969;-67
2022/10/09 09:33:59;;;;;;;4.53;3.65;;;;;;;18.19;61.08;99655.34;1712763;83;21046;-67
2022/10/09 09:36:43;;;;;;;3.98;3.30;;;;;;;18.80;60.09;99656.93;1700606;81;20957;-67
2022/10/09 09:39:13;;;;;;;4.12;3.33;;;;;;;19.88;57.74;99661.42;1729223;81;21066;-67
2022/10/09 09:41:42;;;;;;;4.08;3.35;;;;;;;20.67;54.70;99652.59;1739350;81;21164;-71
2022/10/09 09:44:13;;;;;;;4.08;3.25;;;;;;;21.40;52.89;99648.17;1750136;81;20950;-67
2022/10/09 09:46:40;;;;;;;3.17;2.85;;;;;;;22.52;50.13;99645.36;1711751;82;20986;-67
2022/10/09 09:49:27;;;;;;;4.62;2.95;;;;;;;23.71;46.94;99638.62;1737600;81;21156;-67
2022/10/09 09:51:56;;;;;;;3.27;2.60;;;;;;;24.75;44.23;99642.81;1735992;81;20914;-68
2022/10/09 09:54:29;;;;;;;4.03;2.62;;;;;;;25.70;42.02;99633.23;1727569;81;21503;-67
2022/10/09 09:56:57;;;;;;;4.12;2.87;;;;;;;26.19;40.47;99641.08;1718353;81;21039;-67
2022/10/09 09:59:39;;;;;;;3.17;2.52;;;;;;;25.73;39.37;99637.33;1719103;82;21032;-67
2022/10/09 10:02:14;;;;;;;3.08;2.77;;;;;;;25.25;39.19;99649.25;1718447;82;21016;-67
2022/10/09 10:05:00;;;;;;;3.58;2.25;;;;;;;25.12;39.05;99655.14;1719389;82;21066;-67
2022/10/09 10:07:36;;;;;;;3.90;2.45;;;;;;;25.34;38.53;99644.94;1732405;80;21197;-67
2022/10/09 10:10:16;;;;;;;5.87;3.05;;;;;;;25.62;37.51;99656.05;1750808;80;28671;-67
2022/10/09 10:12:53;;;;;;;5.83;3.52;;;;;;;25.32;36.88;99647.64;1728235;82;20987;-67
2022/10/09 10:15:29;;;;;;;5.40;4.00;;;;;;;24.84;37.30;99655.45;1762497;80;20998;-67
2022/10/09 10:18:15;;;;;;;4.42;3.58;;;;;;;24.51;37.46;99662.70;1776250;80;21476;-68
2022/10/09 10:20:49;;;;;;;5.08;3.20;;;;;;;24.26;37.73;99661.08;1754476;80;21258;-69
2022/10/09 10:23:34;;;;;;;3.85;2.52;;;;;;;24.07;38.14;99666.52;1732219;82;20949;-68
2022/10/09 10:26:30;;;;;;;3.72;2.27;;;;;;;24.04;38.02;99667.02;1725191;83;21021;-69
2022/10/09 10:29:19;;;;;;;3.60;2.83;;;;;;;23.89;37.94;99660.87;1739355;81;20933;-67
2022/10/09 10:32:06;;;;;;;5.47;4.05;;;;;;;23.56;38.18;99666.40;1731858;81;21049;-67
2022/10/09 10:34:37;;;;;;;2.65;2.25;;;;;;;23.17;38.90;99663.33;1721507;81;22097;-67
2022/10/09 10:37:15;;;;;;;4.92;2.27;;;;;;;22.85;39.58;99668.48;1743432;81;20963;-67
2022/10/09 10:40:14;;;;;;;3.12;2.20;;;;;;;22.66;40.12;99664.34;1714819;82;21033;-67
2022/10/09 10:43:12;;;;;;;3.08;2.25;;;;;;;22.57;40.00;99667.97;1726573;83;20970;-68
2022/10/09 10:46:06;;;;;;;4.12;1.90;;;;;;;22.49;39.79;99672.95;1714997;82;21028;-67
2022/10/09 10:48:44;;;;;;;3.80;2.10;;;;;;;22.25;39.93;99664.09;1697009;84;21057;-67
2022/10/09 10:51:44;;;;;;;4.47;2.40;;;;;;;21.96;40.69;99665.95;1701383;82;21498;-66
2022/10/09 10:54:39;;;;;;;9.80;2.17;;;;;;;21.81;41.11;99660.71;1714439;81;21065;-67
2022/10/09 10:57:34;;;;;;;5.45;1.70;;;;;;;21.69;41.54;99661.27;1731195;81;21005;-66
2022/10/09 11:00:06;;;;;;;3.95;1.98;;;;;;;21.73;41.41;99665.13;1720265;83;20950;-66
2022/10/09 11:03:28;;;;;;;4.00;1.87;;;;;;;21.77;41.02;99661.70;1695760;82;21151;-69
2022/10/09 11:06:08;;;;;;;4.58;2.55;;;;;;;21.74;40.83;99666.80;1729541;81;20990;-67
2022/10/09 11:08:55;;;;;;;7.42;2.12;;;;;;;21.62;41.10;99665.97;1754517;81;20895;-68
2022/10/09 11:11:37;;;;;;;3.83;2.40;;;;;;;21.46;41.36;99670.22;1746950;81;21555;-68
2022/10/09 11:14:22;;;;;;;3.80;1.98;;;;;;;21.29;41.51;99667.94;1724076;81;21002;-65
2022/10/09 11:17:28;;;;;;;2.52;1.57;;;;;;;21.13;41.63;99670.80;1731480;82;21167;-67
2022/10/09 11:20:18;;;;;;;2.33;1.42;;;;;;;20.97;41.74;99672.80;1748075;81;20938;-66
2022/10/09 11:22:53;;;;;;;3.60;1.60;;;;;;;20.78;41.72;99671.22;1730545;82;20989;-66
2022/10/09 11:25:30;;;;;;;4.05;2.05;;;;;;;20.58;41.82;99668.83;1710434;82;21001;-67
2022/10/09 11:28:04;;;;;;;1.55;1.40;;;;;;;20.49;42.05;99672.89;1750142;81;20918;-74
2022/10/09 11:30:39;;;;;;;3.42;1.70;;;;;;;20.40;42.08;99679.69;1717227;82;21252;-67
2022/10/09 11:33:26;;;;;;;1.80;1.27;;;;;;;20.39;42.13;99682.08;1719345;82;21013;-68
2022/10/09 11:36:03;;;;;;;4.97;1.77;;;;;;;20.45;41.73;99677.12;1738004;81;21067;-68
2022/10/09 11:38:40;;;;;;;2.52;1.22;;;;;;;20.52;41.55;99672.44;1754944;81;20914;-69
2022/10/09 11:41:07;;;;;;;1.80;1.27;;;;;;;20.56;41.70;99673.65;1727125;82;20850;-67
2022/10/09 11:44:00;;;;;;;2.90;1.40;;;;;;;20.54;41.69;99677.64;1743407;81;21239;-68
2022/10/09 11:46:57;;;;;;;3.77;1.60;;;;;;;20.50;41.61;99680.48;1739552;80;20910;-68
2022/10/09 11:49:38;;;;;;;2.62;1.35;;;;;;;20.41;41.62;99668.36;1721362;81;20993;-68